sensor_id;sensor_type;location;lat;lon;timestamp;pressure;altitude;pressure_sealevel;temperature;humidity
51297;BME280;37380;45.186;9.792;2024-03-23T00:54:27;100993.97;;;10.34;79.07
51297;BME280;37380;45.186;9.792;2024-03-23T00:56:53;100990.19;;;10.32;80.09
51297;BME280;37380;45.186;9.792;2024-03-23T00:59:19;100990.84;;;10.21;80.54
51297;BME280;37380;45.186;9.792;2024-03-23T01:01:45;101002.41;;;9.88;81.81
51297;BME280;37380;45.186;9.792;2024-03-23T01:04:10;100994.66;;;9.98;81.79
51297;BME280;37380;45.186;9.792;2024-03-23T01:06:36;100983.84;;;10.05;82.50
51297;BME280;37380;45.186;9.792;2024-03-23T01:09:03;100980.50;;;10.22;82.74
51297;BME280;37380;45.186;9.792;2024-03-23T01:11:29;100973.66;;;10.23;80.67
51297;BME280;37380;45.186;9.792;2024-03-23T01:13:54;100969.31;;;10.16;81.65
51297;BME280;37380;45.186;9.792;2024-03-23T01:16:21;100965.28;;;10.23;81.40
51297;BME280;37380;45.186;9.792;2024-03-23T01:18:47;100968.34;;;10.25;81.50
51297;BME280;37380;45.186;9.792;2024-03-23T01:21:13;100968.91;;;10.29;81.40
51297;BME280;37380;45.186;9.792;2024-03-23T01:23:39;100969.88;;;10.26;81.73
51297;BME280;37380;45.186;9.792;2024-03-23T01:26:05;100971.63;;;10.23;82.25
51297;BME280;37380;45.186;9.792;2024-03-23T01:28:31;100977.81;;;9.81;82.57
51297;BME280;37380;45.186;9.792;2024-03-23T01:30:57;100970.13;;;9.71;82.66
51297;BME280;37380;45.186;9.792;2024-03-23T01:33:23;100973.41;;;9.69;82.89
51297;BME280;37380;45.186;9.792;2024-03-23T01:35:49;100975.06;;;9.61;82.53
51297;BME280;37380;45.186;9.792;2024-03-23T01:38:15;100974.44;;;9.72;82.90
51297;BME280;37380;45.186;9.792;2024-03-23T01:40:41;100976.56;;;9.36;83.16
51297;BME280;37380;45.186;9.792;2024-03-23T01:43:08;100969.00;;;9.37;83.56
51297;BME280;37380;45.186;9.792;2024-03-23T01:45:34;100976.09;;;9.38;83.53
51297;BME280;37380;45.186;9.792;2024-03-23T01:48:01;100976.59;;;9.16;86.79
51297;BME280;37380;45.186;9.792;2024-03-23T01:50:30;100973.47;;;9.29;87.38
51297;BME280;37380;45.186;9.792;2024-03-23T01:53:02;100975.13;;;9.21;87.12
51297;BME280;37380;45.186;9.792;2024-03-23T01:55:29;100970.81;;;9.20;88.22
51297;BME280;37380;45.186;9.792;2024-03-23T01:57:56;100967.69;;;9.32;87.56
51297;BME280;37380;45.186;9.792;2024-03-23T02:00:23;100965.88;;;9.29;86.57
51297;BME280;37380;45.186;9.792;2024-03-23T02:02:49;100955.25;;;9.08;87.14
51297;BME280;37380;45.186;9.792;2024-03-23T02:05:15;100953.78;;;9.12;87.05
51297;BME280;37380;45.186;9.792;2024-03-23T02:07:42;100952.81;;;9.15;86.14
51297;BME280;37380;45.186;9.792;2024-03-23T02:10:11;100944.22;;;9.13;86.56
51297;BME280;37380;45.186;9.792;2024-03-23T02:12:41;100943.19;;;9.11;86.57
51297;BME280;37380;45.186;9.792;2024-03-23T02:15:07;100938.59;;;9.28;86.16
51297;BME280;37380;45.186;9.792;2024-03-23T02:17:35;100934.78;;;9.25;85.53
51297;BME280;37380;45.186;9.792;2024-03-23T02:20:02;100939.00;;;9.01;86.12
51297;BME280;37380;45.186;9.792;2024-03-23T02:22:38;100942.97;;;8.94;85.47
51297;BME280;37380;45.186;9.792;2024-03-23T02:25:05;100938.06;;;8.84;84.50
51297;BME280;37380;45.186;9.792;2024-03-23T02:27:32;100935.63;;;8.71;86.82
51297;BME280;37380;45.186;9.792;2024-03-23T02:29:58;100918.50;;;8.58;86.03
51297;BME280;37380;45.186;9.792;2024-03-23T02:32:24;100919.16;;;8.67;86.71
51297;BME280;37380;45.186;9.792;2024-03-23T02:34:50;100918.13;;;8.85;86.77
51297;BME280;37380;45.186;9.792;2024-03-23T02:37:16;100913.88;;;8.90;86.01
51297;BME280;37380;45.186;9.792;2024-03-23T02:39:42;100904.94;;;8.80;85.85
51297;BME280;37380;45.186;9.792;2024-03-23T02:42:08;100903.22;;;9.03;87.21
51297;BME280;37380;45.186;9.792;2024-03-23T02:44:34;100896.94;;;9.08;85.77
51297;BME280;37380;45.186;9.792;2024-03-23T02:47:00;100899.16;;;9.24;85.75
51297;BME280;37380;45.186;9.792;2024-03-23T02:49:27;100893.03;;;9.20;86.67
51297;BME280;37380;45.186;9.792;2024-03-23T02:51:52;100890.81;;;9.24;86.00
51297;BME280;37380;45.186;9.792;2024-03-23T02:54:18;100885.78;;;9.28;85.74
51297;BME280;37380;45.186;9.792;2024-03-23T02:56:44;100886.31;;;9.32;84.99
51297;BME280;37380;45.186;9.792;2024-03-23T02:59:10;100887.94;;;9.38;84.69
51297;BME280;37380;45.186;9.792;2024-03-23T03:01:36;100883.78;;;9.28;85.31
51297;BME280;37380;45.186;9.792;2024-03-23T03:04:02;100882.47;;;9.24;85.46
51297;BME280;37380;45.186;9.792;2024-03-23T03:06:30;100894.13;;;9.28;85.21
51297;BME280;37380;45.186;9.792;2024-03-23T03:08:56;100901.41;;;9.00;84.70
51297;BME280;37380;45.186;9.792;2024-03-23T03:11:23;100898.13;;;9.01;85.52
51297;BME280;37380;45.186;9.792;2024-03-23T03:13:49;100889.03;;;8.60;85.03
51297;BME280;37380;45.186;9.792;2024-03-23T03:16:15;100886.94;;;8.35;87.43
51297;BME280;37380;45.186;9.792;2024-03-23T03:18:41;100883.84;;;8.88;88.56
51297;BME280;37380;45.186;9.792;2024-03-23T03:21:07;100870.88;;;9.05;87.74
51297;BME280;37380;45.186;9.792;2024-03-23T03:23:39;100872.53;;;9.17;86.91
51297;BME280;37380;45.186;9.792;2024-03-23T03:26:06;100873.31;;;9.18;86.89
51297;BME280;37380;45.186;9.792;2024-03-23T03:28:32;100870.19;;;9.10;86.98
51297;BME280;37380;45.186;9.792;2024-03-23T03:30:59;100877.22;;;9.06;86.89
51297;BME280;37380;45.186;9.792;2024-03-23T03:33:27;100872.22;;;9.10;86.94
51297;BME280;37380;45.186;9.792;2024-03-23T03:35:53;100861.59;;;9.08;87.74
51297;BME280;37380;45.186;9.792;2024-03-23T03:38:19;100869.16;;;9.08;87.32
51297;BME280;37380;45.186;9.792;2024-03-23T03:40:45;100874.50;;;9.11;86.82
51297;BME280;37380;45.186;9.792;2024-03-23T03:43:12;100868.22;;;8.91;85.12
51297;BME280;37380;45.186;9.792;2024-03-23T03:45:38;100867.91;;;8.89;85.75
51297;BME280;37380;45.186;9.792;2024-03-23T03:48:04;100878.00;;;8.66;86.07
51297;BME280;37380;45.186;9.792;2024-03-23T03:50:30;100865.16;;;8.89;87.88
51297;BME280;37380;45.186;9.792;2024-03-23T03:52:56;100863.13;;;8.89;87.92
51297;BME280;37380;45.186;9.792;2024-03-23T03:55:22;100862.31;;;8.83;86.10
51297;BME280;37380;45.186;9.792;2024-03-23T03:57:48;100867.09;;;8.62;86.74
51297;BME280;37380;45.186;9.792;2024-03-23T04:00:14;100867.09;;;8.42;86.19
51297;BME280;37380;45.186;9.792;2024-03-23T04:02:40;100864.03;;;8.60;86.93
51297;BME280;37380;45.186;9.792;2024-03-23T04:05:06;100865.41;;;8.50;87.09
51297;BME280;37380;45.186;9.792;2024-03-23T04:07:33;100863.16;;;8.49;87.70
51297;BME280;37380;45.186;9.792;2024-03-23T04:10:00;100862.13;;;8.66;86.75
51297;BME280;37380;45.186;9.792;2024-03-23T04:12:26;100867.16;;;8.48;86.59
51297;BME280;37380;45.186;9.792;2024-03-23T04:14:52;100864.16;;;8.31;87.13
51297;BME280;37380;45.186;9.792;2024-03-23T04:17:19;100869.31;;;8.38;87.47
51297;BME280;37380;45.186;9.792;2024-03-23T04:19:44;100855.38;;;8.33;87.51
51297;BME280;37380;45.186;9.792;2024-03-23T04:22:11;100858.59;;;8.31;88.34
51297;BME280;37380;45.186;9.792;2024-03-23T04:24:37;100872.09;;;8.38;87.93
51297;BME280;37380;45.186;9.792;2024-03-23T04:27:03;100862.09;;;8.26;88.59
51297;BME280;37380;45.186;9.792;2024-03-23T04:29:29;100864.53;;;8.24;88.97
51297;BME280;37380;45.186;9.792;2024-03-23T04:31:55;100854.81;;;8.14;87.94
51297;BME280;37380;45.186;9.792;2024-03-23T04:34:22;100849.69;;;8.07;88.72
51297;BME280;37380;45.186;9.792;2024-03-23T04:36:48;100848.78;;;8.30;89.57
51297;BME280;37380;45.186;9.792;2024-03-23T04:39:14;100847.94;;;8.44;89.25
51297;BME280;37380;45.186;9.792;2024-03-23T04:41:40;100847.88;;;8.24;86.46
51297;BME280;37380;45.186;9.792;2024-03-23T04:44:06;100850.09;;;8.35;88.23
51297;BME280;37380;45.186;9.792;2024-03-23T04:46:33;100845.81;;;8.19;87.81
51297;BME280;37380;45.186;9.792;2024-03-23T04:48:58;100844.00;;;8.16;86.35
51297;BME280;37380;45.186;9.792;2024-03-23T04:51:25;100851.69;;;8.06;86.54
51297;BME280;37380;45.186;9.792;2024-03-23T04:53:51;100846.19;;;8.12;87.08
51297;BME280;37380;45.186;9.792;2024-03-23T04:56:16;100846.13;;;8.41;90.20
51297;BME280;37380;45.186;9.792;2024-03-23T04:58:43;100840.81;;;8.58;90.59
51297;BME280;37380;45.186;9.792;2024-03-23T05:01:10;100837.34;;;8.63;90.68
51297;BME280;37380;45.186;9.792;2024-03-23T05:03:37;100830.47;;;8.38;88.80
51297;BME280;37380;45.186;9.792;2024-03-23T05:06:03;100814.38;;;8.42;89.05
51297;BME280;37380;45.186;9.792;2024-03-23T05:08:31;100818.81;;;8.20;88.13
51297;BME280;37380;45.186;9.792;2024-03-23T05:10:57;100814.03;;;8.35;88.22
51297;BME280;37380;45.186;9.792;2024-03-23T05:13:23;100808.81;;;8.42;86.65
51297;BME280;37380;45.186;9.792;2024-03-23T05:15:55;100807.28;;;8.41;86.74
51297;BME280;37380;45.186;9.792;2024-03-23T05:18:21;100807.34;;;8.27;88.21
51297;BME280;37380;45.186;9.792;2024-03-23T05:20:48;100795.19;;;8.24;89.82
51297;BME280;37380;45.186;9.792;2024-03-23T05:23:14;100800.91;;;8.35;90.08
51297;BME280;37380;45.186;9.792;2024-03-23T05:25:40;100788.13;;;8.43;89.77
51297;BME280;37380;45.186;9.792;2024-03-23T05:28:06;100790.03;;;8.52;89.86
51297;BME280;37380;45.186;9.792;2024-03-23T05:30:32;100799.44;;;8.60;90.23
51297;BME280;37380;45.186;9.792;2024-03-23T05:32:58;100802.91;;;8.75;90.25
51297;BME280;37380;45.186;9.792;2024-03-23T05:35:24;100801.00;;;8.87;89.21
51297;BME280;37380;45.186;9.792;2024-03-23T05:37:50;100804.88;;;8.95;87.83
51297;BME280;37380;45.186;9.792;2024-03-23T05:40:16;100814.69;;;8.90;87.35
51297;BME280;37380;45.186;9.792;2024-03-23T05:42:42;100806.41;;;8.96;87.49
51297;BME280;37380;45.186;9.792;2024-03-23T05:45:08;100803.88;;;8.72;87.05
51297;BME280;37380;45.186;9.792;2024-03-23T05:47:34;100807.56;;;8.63;86.46
51297;BME280;37380;45.186;9.792;2024-03-23T05:50:00;100804.53;;;8.61;87.00
51297;BME280;37380;45.186;9.792;2024-03-23T05:52:28;100822.38;;;8.55;88.80
51297;BME280;37380;45.186;9.792;2024-03-23T05:54:54;100814.59;;;8.59;87.88
51297;BME280;37380;45.186;9.792;2024-03-23T05:57:21;100810.72;;;8.76;88.26
51297;BME280;37380;45.186;9.792;2024-03-23T05:59:47;100808.38;;;8.90;88.79
51297;BME280;37380;45.186;9.792;2024-03-23T06:02:13;100804.03;;;9.09;88.25
51297;BME280;37380;45.186;9.792;2024-03-23T06:04:38;100800.28;;;9.12;87.71
51297;BME280;37380;45.186;9.792;2024-03-23T06:07:04;100806.09;;;9.14;88.54
51297;BME280;37380;45.186;9.792;2024-03-23T06:09:42;100806.00;;;9.34;87.54
51297;BME280;37380;45.186;9.792;2024-03-23T06:12:08;100803.88;;;9.49;88.39
51297;BME280;37380;45.186;9.792;2024-03-23T06:14:34;100794.44;;;9.72;86.52
51297;BME280;37380;45.186;9.792;2024-03-23T06:17:01;100787.63;;;9.73;86.92
51297;BME280;37380;45.186;9.792;2024-03-23T06:19:27;100781.69;;;9.91;86.44
51297;BME280;37380;45.186;9.792;2024-03-23T06:21:53;100777.66;;;9.92;84.94
51297;BME280;37380;45.186;9.792;2024-03-23T06:24:23;100777.22;;;10.05;86.20
51297;BME280;37380;45.186;9.792;2024-03-23T06:26:50;100771.84;;;10.38;86.26
51297;BME280;37380;45.186;9.792;2024-03-23T06:29:16;100773.69;;;10.58;82.97
51297;BME280;37380;45.186;9.792;2024-03-23T06:31:57;100766.38;;;10.71;82.74
51297;BME280;37380;45.186;9.792;2024-03-23T06:34:30;100766.69;;;11.01;81.52
51297;BME280;37380;45.186;9.792;2024-03-23T06:36:56;100763.41;;;11.86;79.42
51297;BME280;37380;45.186;9.792;2024-03-23T06:39:22;100753.66;;;12.26;77.10
51297;BME280;37380;45.186;9.792;2024-03-23T06:41:53;100745.47;;;12.39;75.58
51297;BME280;37380;45.186;9.792;2024-03-23T06:44:19;100739.50;;;12.01;76.06
51297;BME280;37380;45.186;9.792;2024-03-23T06:46:45;100749.94;;;11.90;76.66
51297;BME280;37380;45.186;9.792;2024-03-23T06:49:12;100748.72;;;11.74;77.33
51297;BME280;37380;45.186;9.792;2024-03-23T06:51:38;100751.75;;;11.65;77.42
51297;BME280;37380;45.186;9.792;2024-03-23T06:54:05;100754.28;;;11.46;78.09
51297;BME280;37380;45.186;9.792;2024-03-23T06:56:31;100756.06;;;11.44;78.26
51297;BME280;37380;45.186;9.792;2024-03-23T06:58:57;100746.94;;;11.55;77.91
51297;BME280;37380;45.186;9.792;2024-03-23T07:01:23;100749.72;;;11.88;76.97
51297;BME280;37380;45.186;9.792;2024-03-23T07:03:50;100747.69;;;11.88;76.41
51297;BME280;37380;45.186;9.792;2024-03-23T07:06:15;100751.91;;;12.17;75.88
51297;BME280;37380;45.186;9.792;2024-03-23T07:08:41;100743.41;;;12.45;75.26
51297;BME280;37380;45.186;9.792;2024-03-23T07:11:07;100735.13;;;12.74;74.17
51297;BME280;37380;45.186;9.792;2024-03-23T07:13:33;100735.47;;;13.01;73.32
51297;BME280;37380;45.186;9.792;2024-03-23T07:15:59;100727.22;;;13.49;70.99
51297;BME280;37380;45.186;9.792;2024-03-23T07:18:25;100731.63;;;13.09;71.69
51297;BME280;37380;45.186;9.792;2024-03-23T07:20:55;100720.69;;;13.41;70.35
51297;BME280;37380;45.186;9.792;2024-03-23T07:23:24;100716.38;;;13.64;70.02
51297;BME280;37380;45.186;9.792;2024-03-23T07:26:04;100711.25;;;13.92;68.28
51297;BME280;37380;45.186;9.792;2024-03-23T07:28:31;100721.75;;;13.62;69.37
51297;BME280;37380;45.186;9.792;2024-03-23T07:31:05;100729.25;;;13.48;70.29
51297;BME280;37380;45.186;9.792;2024-03-23T07:33:32;100732.91;;;13.38;71.43
51297;BME280;37380;45.186;9.792;2024-03-23T07:36:06;100718.50;;;13.28;72.65
51297;BME280;37380;45.186;9.792;2024-03-23T07:38:33;100725.50;;;13.40;72.53
51297;BME280;37380;45.186;9.792;2024-03-23T07:41:09;100719.13;;;13.16;72.93
51297;BME280;37380;45.186;9.792;2024-03-23T07:43:38;100719.59;;;13.20;74.42
51297;BME280;37380;45.186;9.792;2024-03-23T07:46:06;100711.59;;;13.59;73.70
51297;BME280;37380;45.186;9.792;2024-03-23T07:48:32;100718.81;;;13.97;72.11
51297;BME280;37380;45.186;9.792;2024-03-23T07:51:03;100728.00;;;13.98;70.89
51297;BME280;37380;45.186;9.792;2024-03-23T07:53:31;100727.22;;;13.97;71.85
51297;BME280;37380;45.186;9.792;2024-03-23T07:56:07;100727.31;;;13.92;71.81
51297;BME280;37380;45.186;9.792;2024-03-23T07:58:34;100732.19;;;13.86;71.62
51297;BME280;37380;45.186;9.792;2024-03-23T08:01:08;100742.38;;;13.83;72.02
51297;BME280;37380;45.186;9.792;2024-03-23T08:03:40;100729.81;;;14.38;71.36
51297;BME280;37380;45.186;9.792;2024-03-23T08:06:10;100723.78;;;14.29;71.31
51297;BME280;37380;45.186;9.792;2024-03-23T08:08:36;100714.72;;;14.23;71.31
51297;BME280;37380;45.186;9.792;2024-03-23T08:11:03;100715.00;;;14.19;72.98
51297;BME280;37380;45.186;9.792;2024-03-23T08:13:30;100713.28;;;14.16;73.12
51297;BME280;37380;45.186;9.792;2024-03-23T08:16:00;100701.91;;;14.33;73.97
51297;BME280;37380;45.186;9.792;2024-03-23T08:18:27;100694.97;;;14.52;72.61
51297;BME280;37380;45.186;9.792;2024-03-23T08:20:57;100697.13;;;15.28;70.85
51297;BME280;37380;45.186;9.792;2024-03-23T08:23:25;100689.97;;;14.82;69.16
51297;BME280;37380;45.186;9.792;2024-03-23T08:25:52;100691.00;;;14.98;68.26
51297;BME280;37380;45.186;9.792;2024-03-23T08:28:18;100693.63;;;15.09;69.02
51297;BME280;37380;45.186;9.792;2024-03-23T08:30:46;100700.81;;;15.36;67.68
51297;BME280;37380;45.186;9.792;2024-03-23T08:33:36;100701.72;;;15.44;67.71
51297;BME280;37380;45.186;9.792;2024-03-23T08:36:04;100703.69;;;15.49;66.67
51297;BME280;37380;45.186;9.792;2024-03-23T08:38:30;100701.66;;;15.89;65.35
51297;BME280;37380;45.186;9.792;2024-03-23T08:41:01;100702.09;;;15.80;65.98
51297;BME280;37380;45.186;9.792;2024-03-23T08:43:29;100706.41;;;15.68;65.01
51297;BME280;37380;45.186;9.792;2024-03-23T08:46:14;100709.72;;;16.32;60.73
51297;BME280;37380;45.186;9.792;2024-03-23T08:48:42;100707.00;;;16.27;60.86
51297;BME280;37380;45.186;9.792;2024-03-23T08:51:10;100705.00;;;16.14;60.44
51297;BME280;37380;45.186;9.792;2024-03-23T08:53:37;100712.56;;;16.19;61.44
51297;BME280;37380;45.186;9.792;2024-03-23T08:56:04;100708.78;;;16.16;61.70
51297;BME280;37380;45.186;9.792;2024-03-23T08:58:33;100701.31;;;16.19;61.10
51297;BME280;37380;45.186;9.792;2024-03-23T09:01:06;100696.94;;;16.57;60.30
51297;BME280;37380;45.186;9.792;2024-03-23T09:03:32;100688.16;;;16.61;59.67
51297;BME280;37380;45.186;9.792;2024-03-23T09:05:59;100690.69;;;16.51;60.52
51297;BME280;37380;45.186;9.792;2024-03-23T09:08:25;100681.19;;;16.28;61.52
51297;BME280;37380;45.186;9.792;2024-03-23T09:10:51;100681.38;;;16.56;60.25
51297;BME280;37380;45.186;9.792;2024-03-23T09:13:18;100685.34;;;16.61;60.16
51297;BME280;37380;45.186;9.792;2024-03-23T09:15:48;100666.91;;;16.52;60.18
51297;BME280;37380;45.186;9.792;2024-03-23T09:18:15;100668.19;;;16.51;59.81
51297;BME280;37380;45.186;9.792;2024-03-23T09:20:42;100668.63;;;16.42;60.90
51297;BME280;37380;45.186;9.792;2024-03-23T09:23:08;100664.66;;;16.25;60.95
51297;BME280;37380;45.186;9.792;2024-03-23T09:25:38;100667.09;;;16.41;60.74
51297;BME280;37380;45.186;9.792;2024-03-23T09:28:07;100661.94;;;16.45;61.28
51297;BME280;37380;45.186;9.792;2024-03-23T09:30:36;100652.91;;;16.26;62.59
51297;BME280;37380;45.186;9.792;2024-03-23T09:33:12;100646.56;;;16.80;61.43
51297;BME280;37380;45.186;9.792;2024-03-23T09:35:38;100639.97;;;16.77;61.04
51297;BME280;37380;45.186;9.792;2024-03-23T09:38:05;100627.09;;;17.03;60.33
51297;BME280;37380;45.186;9.792;2024-03-23T09:40:33;100628.31;;;16.94;60.63
51297;BME280;37380;45.186;9.792;2024-03-23T09:42:59;100618.84;;;17.05;60.96
51297;BME280;37380;45.186;9.792;2024-03-23T09:45:29;100615.41;;;16.99;60.83
51297;BME280;37380;45.186;9.792;2024-03-23T09:47:55;100616.38;;;17.01;59.96
51297;BME280;37380;45.186;9.792;2024-03-23T09:50:22;100604.19;;;17.27;59.52
51297;BME280;37380;45.186;9.792;2024-03-23T09:52:49;100611.00;;;17.11;60.18
51297;BME280;37380;45.186;9.792;2024-03-23T09:55:15;100614.75;;;17.34;59.01
51297;BME280;37380;45.186;9.792;2024-03-23T09:57:42;100609.16;;;17.13;58.15
51297;BME280;37380;45.186;9.792;2024-03-23T10:00:08;100602.69;;;17.26;58.47
51297;BME280;37380;45.186;9.792;2024-03-23T10:02:35;100592.84;;;17.40;59.22
51297;BME280;37380;45.186;9.792;2024-03-23T10:05:01;100598.66;;;17.42;58.42
51297;BME280;37380;45.186;9.792;2024-03-23T10:07:27;100588.28;;;17.93;57.52
51297;BME280;37380;45.186;9.792;2024-03-23T10:09:54;100573.13;;;18.19;55.64
51297;BME280;37380;45.186;9.792;2024-03-23T10:12:20;100569.00;;;18.20;56.01
51297;BME280;37380;45.186;9.792;2024-03-23T10:14:46;100563.06;;;18.54;55.71
51297;BME280;37380;45.186;9.792;2024-03-23T10:19:48;100559.38;;;18.00;55.81
51297;BME280;37380;45.186;9.792;2024-03-23T10:22:23;100559.31;;;17.85;56.02
51297;BME280;37380;45.186;9.792;2024-03-23T10:24:50;100557.72;;;18.12;55.85
51297;BME280;37380;45.186;9.792;2024-03-23T10:27:19;100554.81;;;18.56;53.93
51297;BME280;37380;45.186;9.792;2024-03-23T10:29:47;100550.63;;;18.42;54.34
51297;BME280;37380;45.186;9.792;2024-03-23T10:32:15;100548.53;;;18.27;53.69
51297;BME280;37380;45.186;9.792;2024-03-23T10:34:44;100543.78;;;17.99;53.51
51297;BME280;37380;45.186;9.792;2024-03-23T10:37:15;100545.00;;;18.42;52.71
51297;BME280;37380;45.186;9.792;2024-03-23T10:39:41;100531.66;;;18.42;52.70
51297;BME280;37380;45.186;9.792;2024-03-23T10:42:08;100525.47;;;18.89;54.30
51297;BME280;37380;45.186;9.792;2024-03-23T10:44:36;100519.66;;;18.79;51.96
51297;BME280;37380;45.186;9.792;2024-03-23T10:47:04;100513.19;;;19.24;56.40
51297;BME280;37380;45.186;9.792;2024-03-23T10:49:32;100515.88;;;19.07;51.86
51297;BME280;37380;45.186;9.792;2024-03-23T10:52:02;100498.03;;;18.52;52.67
51297;BME280;37380;45.186;9.792;2024-03-23T10:54:29;100496.16;;;18.62;52.94
51297;BME280;37380;45.186;9.792;2024-03-23T10:57:04;100499.91;;;18.87;54.14
51297;BME280;37380;45.186;9.792;2024-03-23T10:59:32;100484.13;;;18.54;52.83
51297;BME280;37380;45.186;9.792;2024-03-23T11:02:00;100481.88;;;18.60;52.83
51297;BME280;37380;45.186;9.792;2024-03-23T11:06:57;100473.22;;;18.73;56.76
51297;BME280;37380;45.186;9.792;2024-03-23T11:09:41;100472.94;;;19.24;51.57
51297;BME280;37380;45.186;9.792;2024-03-23T11:12:30;100461.72;;;18.86;52.05
51297;BME280;37380;45.186;9.792;2024-03-23T11:15:03;100448.72;;;19.06;51.40
51297;BME280;37380;45.186;9.792;2024-03-23T11:17:30;100452.59;;;19.25;51.94
51297;BME280;37380;45.186;9.792;2024-03-23T11:20:03;100457.84;;;19.36;50.62
51297;BME280;37380;45.186;9.792;2024-03-23T11:25:26;100442.31;;;19.05;50.71
51297;BME280;37380;45.186;9.792;2024-03-23T11:27:54;100440.09;;;18.96;50.34
51297;BME280;37380;45.186;9.792;2024-03-23T11:30:25;100423.22;;;18.58;51.04
51297;BME280;37380;45.186;9.792;2024-03-23T11:32:54;100418.69;;;18.33;51.58
51297;BME280;37380;45.186;9.792;2024-03-23T11:35:37;100414.94;;;18.30;51.54
51297;BME280;37380;45.186;9.792;2024-03-23T11:40:40;100408.69;;;19.39;49.22
51297;BME280;37380;45.186;9.792;2024-03-23T11:43:09;100407.56;;;19.42;48.95
51297;BME280;37380;45.186;9.792;2024-03-23T11:45:42;100394.44;;;19.70;49.76
51297;BME280;37380;45.186;9.792;2024-03-23T11:48:10;100388.03;;;19.29;52.17
51297;BME280;37380;45.186;9.792;2024-03-23T11:50:39;100388.59;;;19.68;50.40
51297;BME280;37380;45.186;9.792;2024-03-23T11:53:08;100367.44;;;19.04;50.32
51297;BME280;37380;45.186;9.792;2024-03-23T11:58:27;100352.28;;;19.24;49.48
51297;BME280;37380;45.186;9.792;2024-03-23T12:01:01;100348.31;;;19.67;50.28
51297;BME280;37380;45.186;9.792;2024-03-23T12:03:31;100342.47;;;19.90;51.30
51297;BME280;37380;45.186;9.792;2024-03-23T12:06:03;100337.88;;;20.19;50.57
51297;BME280;37380;45.186;9.792;2024-03-23T12:08:33;100331.41;;;20.51;50.66
51297;BME280;37380;45.186;9.792;2024-03-23T12:13:33;100320.09;;;20.68;50.12
51297;BME280;37380;45.186;9.792;2024-03-23T12:16:13;100305.88;;;20.16;47.96
51297;BME280;37380;45.186;9.792;2024-03-23T12:18:43;100302.56;;;19.86;48.20
51297;BME280;37380;45.186;9.792;2024-03-23T12:21:13;100288.56;;;19.71;48.28
51297;BME280;37380;45.186;9.792;2024-03-23T12:23:39;100288.84;;;19.25;49.63
51297;BME280;37380;45.186;9.792;2024-03-23T12:26:13;100287.72;;;19.61;49.60
51297;BME280;37380;45.186;9.792;2024-03-23T12:28:39;100283.59;;;19.54;50.51
51297;BME280;37380;45.186;9.792;2024-03-23T12:31:15;100279.97;;;19.36;51.25
51297;BME280;37380;45.186;9.792;2024-03-23T12:33:41;100284.03;;;19.51;51.34
51297;BME280;37380;45.186;9.792;2024-03-23T12:36:10;100279.53;;;19.15;51.77
51297;BME280;37380;45.186;9.792;2024-03-23T12:38:36;100279.91;;;19.44;50.92
51297;BME280;37380;45.186;9.792;2024-03-23T12:41:02;100275.63;;;19.68;51.14
51297;BME280;37380;45.186;9.792;2024-03-23T12:43:31;100274.91;;;20.01;50.95
51297;BME280;37380;45.186;9.792;2024-03-23T12:45:56;100270.69;;;20.10;51.63
51297;BME280;37380;45.186;9.792;2024-03-23T12:48:22;100264.53;;;19.87;50.75
51297;BME280;37380;45.186;9.792;2024-03-23T12:50:48;100255.94;;;19.94;48.96
51297;BME280;37380;45.186;9.792;2024-03-23T12:53:14;100249.09;;;20.05;49.70
51297;BME280;37380;45.186;9.792;2024-03-23T12:55:40;100249.53;;;20.36;50.94
51297;BME280;37380;45.186;9.792;2024-03-23T12:58:06;100243.03;;;20.43;50.40
51297;BME280;37380;45.186;9.792;2024-03-23T13:00:33;100251.09;;;20.12;48.13
51297;BME280;37380;45.186;9.792;2024-03-23T13:02:59;100242.00;;;19.96;49.17
51297;BME280;37380;45.186;9.792;2024-03-23T13:05:24;100241.81;;;19.53;49.41
51297;BME280;37380;45.186;9.792;2024-03-23T13:07:50;100240.97;;;19.67;49.58
51297;BME280;37380;45.186;9.792;2024-03-23T13:10:16;100232.38;;;19.58;49.34
51297;BME280;37380;45.186;9.792;2024-03-23T13:12:43;100226.91;;;19.60;50.31
51297;BME280;37380;45.186;9.792;2024-03-23T13:15:09;100223.94;;;19.75;52.12
51297;BME280;37380;45.186;9.792;2024-03-23T13:17:35;100238.09;;;20.09;51.63
51297;BME280;37380;45.186;9.792;2024-03-23T13:20:01;100224.47;;;20.15;49.87
51297;BME280;37380;45.186;9.792;2024-03-23T13:22:27;100235.78;;;20.15;50.57
51297;BME280;37380;45.186;9.792;2024-03-23T13:24:54;100229.59;;;19.75;49.28
51297;BME280;37380;45.186;9.792;2024-03-23T13:27:20;100226.41;;;19.71;50.04
51297;BME280;37380;45.186;9.792;2024-03-23T13:29:46;100229.84;;;19.44;50.50
51297;BME280;37380;45.186;9.792;2024-03-23T13:32:12;100232.00;;;19.54;50.34
51297;BME280;37380;45.186;9.792;2024-03-23T13:34:39;100227.00;;;19.20;50.82
51297;BME280;37380;45.186;9.792;2024-03-23T13:37:06;100225.81;;;19.55;49.95
51297;BME280;37380;45.186;9.792;2024-03-23T13:39:33;100221.53;;;19.46;49.78
51297;BME280;37380;45.186;9.792;2024-03-23T13:41:59;100226.88;;;19.35;50.20
51297;BME280;37380;45.186;9.792;2024-03-23T13:44:25;100211.91;;;19.25;50.47
51297;BME280;37380;45.186;9.792;2024-03-23T13:46:51;100213.28;;;19.16;50.53
51297;BME280;37380;45.186;9.792;2024-03-23T13:49:28;100206.75;;;19.38;50.25
51297;BME280;37380;45.186;9.792;2024-03-23T13:51:55;100199.81;;;19.32;49.59
51297;BME280;37380;45.186;9.792;2024-03-23T13:54:23;100187.44;;;19.69;50.44
51297;BME280;37380;45.186;9.792;2024-03-23T13:56:50;100175.78;;;19.48;49.11
51297;BME280;37380;45.186;9.792;2024-03-23T13:59:16;100166.44;;;19.63;49.36
51297;BME280;37380;45.186;9.792;2024-03-23T14:01:46;100151.97;;;19.76;51.64
51297;BME280;37380;45.186;9.792;2024-03-23T14:04:12;100147.06;;;19.76;49.09
51297;BME280;37380;45.186;9.792;2024-03-23T14:06:39;100144.56;;;19.80;49.52